Time,TemperatureF,DewpointF,PressureIn,WindDirection,WindDirectionDegrees,WindSpeedMPH,WindSpeedGustMPH,Humidity,HourlyPrecipIn,Conditions,Clouds,dailyrainin,SoftwareType,DateUTC
2013-02-28 00:14:00,39.2,26.9,29.85,NW,315,7.3,-999.0,61,-99.99,,,0.00,Acu-Link.com,2013-02-28 06:14:00,
2013-02-28 00:30:00,38.3,25.6,29.84,SW,225,5.8,-999.0,60,-99.99,,,0.00,Acu-Link.com,2013-02-28 06:30:00,
2013-02-28 00:45:00,37.0,25.2,29.85,NNW,337,3.7,-999.0,62,-99.99,,,0.00,Acu-Link.com,2013-02-28 06:45:00,
2013-02-28 01:00:00,36.3,24.9,29.85,NW,315,1.7,-999.0,63,-99.99,,,0.00,Acu-Link.com,2013-02-28 07:00:00,
2013-02-28 01:15:00,35.8,25.2,29.85,NW,315,1.7,-999.0,65,-99.99,,,0.00,Acu-Link.com,2013-02-28 07:15:00,
2013-02-28 01:30:00,35.8,25.6,29.85,WNW,292,2.2,-999.0,66,-99.99,,,0.00,Acu-Link.com,2013-02-28 07:30:00,
2013-02-28 01:45:00,35.1,25.3,29.85,WNW,292,1.7,-999.0,67,-99.99,,,0.00,Acu-Link.com,2013-02-28 07:45:00,
2013-02-28 02:00:00,34.0,24.9,29.85,WNW,292,0.0,-999.0,69,-99.99,,,0.00,Acu-Link.com,2013-02-28 08:00:00,
2013-02-28 02:15:00,33.3,25.3,29.85,WNW,292,0.0,-999.0,72,-99.99,,,0.00,Acu-Link.com,2013-02-28 08:15:00,
2013-02-28 02:30:00,32.4,25.4,29.85,WNW,292,1.1,-999.0,75,-99.99,,,0.00,Acu-Link.com,2013-02-28 08:30:00,
2013-02-28 02:46:00,32.4,25.4,29.85,West,270,2.2,-999.0,75,-99.99,,,0.00,Acu-Link.com,2013-02-28 08:46:00,
2013-02-28 03:01:00,32.5,25.5,29.84,WNW,292,1.1,-999.0,75,-99.99,,,0.00,Acu-Link.com,2013-02-28 09:01:00,
2013-02-28 03:19:00,32.5,25.5,29.84,WNW,292,1.7,-999.0,75,-99.99,,,0.00,Acu-Link.com,2013-02-28 09:19:00,
2013-02-28 03:34:00,32.7,25.3,29.85,NNW,337,0.0,-999.0,74,-99.99,,,0.00,Acu-Link.com,2013-02-28 09:34:00,
2013-02-28 03:49:00,32.9,25.9,29.84,NW,315,1.7,-999.0,75,-99.99,,,0.00,Acu-Link.com,2013-02-28 09:49:00,
2013-02-28 04:04:00,33.6,26.5,29.84,West,270,2.7,-999.0,75,-99.99,,,0.00,Acu-Link.com,2013-02-28 10:04:00,
2013-02-28 04:20:00,34.2,26.5,29.85,NE,45,1.7,-999.0,73,-99.99,,,0.00,Acu-Link.com,2013-02-28 10:20:00,
2013-02-28 04:35:00,35.2,27.1,29.85,NNW,337,2.2,-999.0,72,-99.99,,,0.00,Acu-Link.com,2013-02-28 10:35:00,
2013-02-28 04:50:00,35.8,27.0,29.85,West,270,1.7,-999.0,70,-99.99,,,0.00,Acu-Link.com,2013-02-28 10:50:00,
2013-02-28 05:05:00,36.1,26.6,29.86,NNW,337,3.2,-999.0,68,-99.99,,,0.00,Acu-Link.com,2013-02-28 11:05:00,
2013-02-28 05:20:00,36.5,25.5,29.87,WSW,247,5.3,-999.0,64,-99.99,,,0.00,Acu-Link.com,2013-02-28 11:20:00,
2013-02-28 05:35:00,36.5,25.1,29.87,North,0,5.8,-999.0,63,-99.99,,,0.00,Acu-Link.com,2013-02-28 11:35:00,
2013-02-28 05:50:00,36.5,25.1,29.88,NW,315,3.7,-999.0,63,-99.99,,,0.00,Acu-Link.com,2013-02-28 11:50:00,
2013-02-28 06:05:00,36.5,25.1,29.87,NW,315,3.2,-999.0,63,-99.99,,,0.00,Acu-Link.com,2013-02-28 12:05:00,
2013-02-28 06:20:00,36.5,25.1,29.87,West,270,3.7,-999.0,63,-99.99,,,0.00,Acu-Link.com,2013-02-28 12:20:00,
2013-02-28 06:36:00,36.5,24.7,29.87,NW,315,1.1,-999.0,62,-99.99,,,0.00,Acu-Link.com,2013-02-28 12:36:00,
2013-02-28 06:51:00,36.5,24.7,29.87,WNW,292,2.2,-999.0,62,-99.99,,,0.00,Acu-Link.com,2013-02-28 12:51:00,
2013-02-28 07:06:00,36.9,25.1,29.87,WNW,292,2.7,-999.0,62,-99.99,,,0.00,Acu-Link.com,2013-02-28 13:06:00,
2013-02-28 07:21:00,37.0,25.2,29.88,WNW,292,2.2,-999.0,62,-99.99,,,0.00,Acu-Link.com,2013-02-28 13:21:00,
2013-02-28 07:36:00,37.6,25.4,29.87,NW,315,3.2,-999.0,61,-99.99,,,0.00,Acu-Link.com,2013-02-28 13:36:00,
2013-02-28 07:51:00,38.3,26.4,29.88,NNE,22,2.7,-999.0,62,-99.99,,,0.00,Acu-Link.com,2013-02-28 13:51:00,
2013-02-28 08:06:00,38.7,26.4,29.89,West,270,6.3,-999.0,61,-99.99,,,0.00,Acu-Link.com,2013-02-28 14:06:00,
2013-02-28 08:21:00,39.0,26.7,29.89,NNE,22,3.2,-999.0,61,-99.99,,,0.00,Acu-Link.com,2013-02-28 14:21:00,
2013-02-28 08:36:00,38.8,26.1,29.90,West,270,4.7,-999.0,60,-99.99,,,0.00,Acu-Link.com,2013-02-28 14:36:00,
2013-02-28 08:52:00,39.0,25.9,29.90,North,0,3.7,-999.0,59,-99.99,,,0.00,Acu-Link.com,2013-02-28 14:52:00,
2013-02-28 09:07:00,39.7,26.2,29.91,ENE,67,5.3,-999.0,58,-99.99,,,0.00,Acu-Link.com,2013-02-28 15:07:00,
2013-02-28 09:22:00,39.4,25.9,29.91,West,270,7.3,-999.0,58,-99.99,,,0.00,Acu-Link.com,2013-02-28 15:22:00,
2013-02-28 09:37:00,39.7,25.3,29.92,WNW,292,4.7,-999.0,56,-99.99,,,0.00,Acu-Link.com,2013-02-28 15:37:00,
2013-02-28 09:52:00,41.7,24.9,29.91,NNW,337,6.3,-999.0,51,-99.99,,,0.00,Acu-Link.com,2013-02-28 15:52:00,
2013-02-28 10:07:00,42.8,25.9,29.92,West,270,7.3,-999.0,51,-99.99,,,0.00,Acu-Link.com,2013-02-28 16:07:00,
2013-02-28 10:22:00,42.4,25.6,29.93,West,270,3.7,-999.0,51,-99.99,,,0.00,Acu-Link.com,2013-02-28 16:22:00,
2013-02-28 10:37:00,41.5,24.7,29.92,West,270,8.3,-999.0,51,-99.99,,,0.00,Acu-Link.com,2013-02-28 16:37:00,
2013-02-28 10:52:00,41.9,25.6,29.92,NW,315,4.2,-999.0,52,-99.99,,,0.00,Acu-Link.com,2013-02-28 16:52:00,
2013-02-28 11:08:00,42.3,26.4,29.93,NNE,22,4.2,-999.0,53,-99.99,,,0.00,Acu-Link.com,2013-02-28 17:08:00,
2013-02-28 11:23:00,41.5,26.1,29.93,NW,315,2.2,-999.0,54,-99.99,,,0.00,Acu-Link.com,2013-02-28 17:23:00,
2013-02-28 11:38:00,42.1,26.7,29.94,WNW,292,3.7,-999.0,54,-99.99,,,0.00,Acu-Link.com,2013-02-28 17:38:00,
2013-02-28 11:53:00,41.9,26.0,29.94,West,270,3.7,-999.0,53,-99.99,,,0.00,Acu-Link.com,2013-02-28 17:53:00,
2013-02-28 12:08:00,42.3,27.3,29.94,WNW,292,2.7,-999.0,55,-99.99,,,0.00,Acu-Link.com,2013-02-28 18:08:00,
2013-02-28 12:23:00,43.0,26.6,29.94,ENE,67,3.7,-999.0,52,-99.99,,,0.00,Acu-Link.com,2013-02-28 18:23:00,
2013-02-28 12:38:00,42.8,26.4,29.94,East,90,2.2,-999.0,52,-99.99,,,0.00,Acu-Link.com,2013-02-28 18:38:00,
2013-02-28 12:53:00,43.3,26.9,29.92,WNW,292,3.7,-999.0,52,-99.99,,,0.00,Acu-Link.com,2013-02-28 18:53:00,
2013-02-28 13:08:00,43.3,27.3,29.93,WSW,247,3.2,-999.0,53,-99.99,,,0.00,Acu-Link.com,2013-02-28 19:08:00,
2013-02-28 13:24:00,44.1,26.7,29.94,NW,315,4.2,-999.0,50,-99.99,,,0.00,Acu-Link.com,2013-02-28 19:24:00,
2013-02-28 13:39:00,43.5,27.1,29.93,West,270,4.2,-999.0,52,-99.99,,,0.00,Acu-Link.com,2013-02-28 19:39:00,
2013-02-28 13:54:00,43.5,26.6,29.93,NNW,337,3.2,-999.0,51,-99.99,,,0.00,Acu-Link.com,2013-02-28 19:54:00,
2013-02-28 14:09:00,43.7,27.2,29.93,East,90,4.2,-999.0,52,-99.99,,,0.00,Acu-Link.com,2013-02-28 20:09:00,
2013-02-28 14:24:00,44.2,28.2,29.93,WSW,247,4.2,-999.0,53,-99.99,,,0.00,Acu-Link.com,2013-02-28 20:24:00,
2013-02-28 14:39:00,44.4,26.9,29.92,NNW,337,2.7,-999.0,50,-99.99,,,0.00,Acu-Link.com,2013-02-28 20:39:00,
2013-02-28 14:54:00,45.0,27.5,29.93,NW,315,2.7,-999.0,50,-99.99,,,0.00,Acu-Link.com,2013-02-28 20:54:00,
2013-02-28 15:09:00,43.5,27.1,29.93,NW,315,3.7,-999.0,52,-99.99,,,0.00,Acu-Link.com,2013-02-28 21:09:00,
2013-02-28 15:24:00,42.8,26.9,29.93,NW,315,3.7,-999.0,53,-99.99,,,0.00,Acu-Link.com,2013-02-28 21:24:00,
2013-02-28 15:40:00,42.8,27.8,29.93,NNW,337,2.7,-999.0,55,-99.99,,,0.00,Acu-Link.com,2013-02-28 21:40:00,
2013-02-28 15:55:00,42.4,27.4,29.93,North,0,3.2,-999.0,55,-99.99,,,0.00,Acu-Link.com,2013-02-28 21:55:00,
2013-02-28 16:10:00,42.4,26.9,29.93,WNW,292,0.0,-999.0,54,-99.99,,,0.00,Acu-Link.com,2013-02-28 22:10:00,
2013-02-28 16:25:00,42.6,27.1,29.93,WNW,292,1.7,-999.0,54,-99.99,,,0.00,Acu-Link.com,2013-02-28 22:25:00,
2013-02-28 16:40:00,42.3,27.3,29.92,NNW,337,4.2,-999.0,55,-99.99,,,0.00,Acu-Link.com,2013-02-28 22:40:00,
2013-02-28 16:55:00,41.9,26.9,29.93,WNW,292,1.7,-999.0,55,-99.99,,,0.00,Acu-Link.com,2013-02-28 22:55:00,
2013-02-28 17:10:00,41.7,27.6,29.93,NE,45,2.7,-999.0,57,-99.99,,,0.00,Acu-Link.com,2013-02-28 23:10:00,
2013-02-28 17:25:00,41.2,27.1,29.93,NW,315,1.7,-999.0,57,-99.99,,,0.00,Acu-Link.com,2013-02-28 23:25:00,
2013-02-28 17:40:00,41.0,26.9,29.93,NNW,337,4.7,-999.0,57,-99.99,,,0.00,Acu-Link.com,2013-02-28 23:40:00,
2013-02-28 17:56:00,40.8,27.2,29.93,NE,45,2.2,-999.0,58,-99.99,,,0.00,Acu-Link.com,2013-02-28 23:56:00,
2013-02-28 18:11:00,40.5,27.3,29.93,NW,315,2.7,-999.0,59,-99.99,,,0.00,Acu-Link.com,2013-03-01 00:11:00,
2013-02-28 18:26:00,40.5,27.7,29.94,NW,315,2.7,-999.0,60,-99.99,,,0.00,Acu-Link.com,2013-03-01 00:26:00,
2013-02-28 18:41:00,40.1,27.7,29.95,NNW,337,0.0,-999.0,61,-99.99,,,0.00,Acu-Link.com,2013-03-01 00:41:00,
2013-02-28 18:56:00,39.9,27.6,29.95,NNW,337,0.0,-999.0,61,-99.99,,,0.00,Acu-Link.com,2013-03-01 00:56:00,
2013-02-28 19:11:00,39.7,27.8,29.95,NNW,337,0.0,-999.0,62,-99.99,,,0.00,Acu-Link.com,2013-03-01 01:11:00,
2013-02-28 19:26:00,39.6,28.1,29.94,NNW,337,0.0,-999.0,63,-99.99,,,0.00,Acu-Link.com,2013-03-01 01:26:00,
2013-02-28 19:42:00,39.6,28.4,29.95,NNW,337,0.0,-999.0,64,-99.99,,,0.00,Acu-Link.com,2013-03-01 01:42:00,
2013-02-28 19:57:00,39.4,28.3,29.94,NNW,337,0.0,-999.0,64,-99.99,,,0.00,Acu-Link.com,2013-03-01 01:57:00,
2013-02-28 20:12:00,39.4,28.6,29.94,NNW,337,0.0,-999.0,65,-99.99,,,0.00,Acu-Link.com,2013-03-01 02:12:00,
2013-02-28 20:27:00,39.4,28.6,29.94,NNE,22,0.0,-999.0,65,-99.99,,,0.00,Acu-Link.com,2013-03-01 02:27:00,
2013-02-28 20:42:00,39.2,28.4,29.95,NW,315,1.7,-999.0,65,-99.99,,,0.00,Acu-Link.com,2013-03-01 02:42:00,
2013-02-28 20:57:00,38.5,27.8,29.95,NW,315,2.2,-999.0,65,-99.99,,,0.00,Acu-Link.com,2013-03-01 02:57:00,
2013-02-28 21:12:00,37.4,27.1,29.95,NNW,337,1.7,-999.0,66,-99.99,,,0.00,Acu-Link.com,2013-03-01 03:12:00,
2013-02-28 21:27:00,37.6,27.3,29.95,NW,315,1.1,-999.0,66,-99.99,,,0.00,Acu-Link.com,2013-03-01 03:27:00,
2013-02-28 21:42:00,37.4,27.1,29.95,NNW,337,3.7,-999.0,66,-99.99,,,0.00,Acu-Link.com,2013-03-01 03:42:00,
2013-02-28 21:58:00,36.9,27.3,29.95,NNW,337,2.2,-999.0,68,-99.99,,,0.00,Acu-Link.com,2013-03-01 03:58:00,
2013-02-28 22:13:00,36.9,27.3,29.95,SW,225,3.7,-999.0,68,-99.99,,,0.00,Acu-Link.com,2013-03-01 04:13:00,
2013-02-28 22:28:00,36.7,27.2,29.95,NW,315,3.2,-999.0,68,-99.99,,,0.00,Acu-Link.com,2013-03-01 04:28:00,
2013-02-28 22:43:00,36.0,26.8,29.95,NNW,337,1.1,-999.0,69,-99.99,,,0.00,Acu-Link.com,2013-03-01 04:43:00,
2013-02-28 22:58:00,35.8,26.6,29.95,NNW,337,2.7,-999.0,69,-99.99,,,0.00,Acu-Link.com,2013-03-01 04:58:00,
2013-02-28 23:13:00,35.2,26.4,29.95,NNW,337,0.0,-999.0,70,-99.99,,,0.00,Acu-Link.com,2013-03-01 05:13:00,
2013-02-28 23:29:00,35.1,27.0,29.94,NNW,337,1.7,-999.0,72,-99.99,,,0.00,Acu-Link.com,2013-03-01 05:29:00,
2013-02-28 23:44:00,35.4,27.3,29.93,NW,315,0.0,-999.0,72,-99.99,,,0.00,Acu-Link.com,2013-03-01 05:44:00,
2013-02-28 23:59:00,35.8,27.7,29.93,NE,45,2.2,-999.0,72,-99.99,,,0.00,Acu-Link.com,2013-03-01 05:59:00,